sensor_id;sensor_type;location;lat;lon;timestamp;P1;durP1;ratioP1;P2;durP2;ratioP2
1320;SDS011;653;51.480;11.992;2023-08-08T00:00:53;4.97;;;2.37;;
1320;SDS011;653;51.480;11.992;2023-08-08T00:03:20;5.53;;;2.70;;
1320;SDS011;653;51.480;11.992;2023-08-08T00:05:47;4.70;;;2.67;;
1320;SDS011;653;51.480;11.992;2023-08-08T00:08:12;4.90;;;2.47;;
1320;SDS011;653;51.480;11.992;2023-08-08T00:10:39;4.70;;;2.90;;
1320;SDS011;653;51.480;11.992;2023-08-08T00:13:05;4.40;;;2.63;;
1320;SDS011;653;51.480;11.992;2023-08-08T00:15:32;4.87;;;2.93;;
1320;SDS011;653;51.480;11.992;2023-08-08T00:17:58;5.13;;;2.67;;
1320;SDS011;653;51.480;11.992;2023-08-08T00:20:25;4.57;;;2.90;;
1320;SDS011;653;51.480;11.992;2023-08-08T00:22:55;5.27;;;2.97;;
1320;SDS011;653;51.480;11.992;2023-08-08T00:25:20;5.03;;;2.80;;
1320;SDS011;653;51.480;11.992;2023-08-08T00:27:46;4.80;;;2.73;;
1320;SDS011;653;51.480;11.992;2023-08-08T00:30:13;7.60;;;3.00;;
1320;SDS011;653;51.480;11.992;2023-08-08T00:32:46;4.60;;;3.30;;
1320;SDS011;653;51.480;11.992;2023-08-08T00:35:13;5.13;;;3.60;;
1320;SDS011;653;51.480;11.992;2023-08-08T00:37:40;7.57;;;2.80;;
1320;SDS011;653;51.480;11.992;2023-08-08T00:40:09;5.10;;;2.90;;
1320;SDS011;653;51.480;11.992;2023-08-08T00:42:35;4.70;;;3.60;;
1320;SDS011;653;51.480;11.992;2023-08-08T00:45:02;9.00;;;3.80;;
1320;SDS011;653;51.480;11.992;2023-08-08T00:47:31;6.63;;;3.60;;
1320;SDS011;653;51.480;11.992;2023-08-08T00:50:00;5.83;;;3.00;;
1320;SDS011;653;51.480;11.992;2023-08-08T00:52:26;5.20;;;3.13;;
1320;SDS011;653;51.480;11.992;2023-08-08T00:54:52;5.70;;;3.07;;
1320;SDS011;653;51.480;11.992;2023-08-08T00:57:20;4.87;;;3.10;;
1320;SDS011;653;51.480;11.992;2023-08-08T00:59:46;7.33;;;3.10;;
1320;SDS011;653;51.480;11.992;2023-08-08T01:02:12;4.63;;;2.60;;
1320;SDS011;653;51.480;11.992;2023-08-08T01:04:39;5.20;;;3.60;;
1320;SDS011;653;51.480;11.992;2023-08-08T01:09:53;12.00;;;3.03;;
1320;SDS011;653;51.480;11.992;2023-08-08T01:12:25;7.30;;;3.70;;
1320;SDS011;653;51.480;11.992;2023-08-08T01:14:52;7.80;;;3.00;;
1320;SDS011;653;51.480;11.992;2023-08-08T01:17:19;4.90;;;3.40;;
1320;SDS011;653;51.480;11.992;2023-08-08T01:19:46;6.70;;;3.10;;
1320;SDS011;653;51.480;11.992;2023-08-08T01:22:21;10.40;;;3.60;;
1320;SDS011;653;51.480;11.992;2023-08-08T01:24:50;6.60;;;3.30;;
1320;SDS011;653;51.480;11.992;2023-08-08T01:27:17;5.93;;;2.93;;
1320;SDS011;653;51.480;11.992;2023-08-08T01:29:42;4.50;;;2.90;;
1320;SDS011;653;51.480;11.992;2023-08-08T01:32:09;6.30;;;3.10;;
1320;SDS011;653;51.480;11.992;2023-08-08T01:34:37;6.47;;;4.10;;
1320;SDS011;653;51.480;11.992;2023-08-08T01:37:07;3.93;;;2.40;;
1320;SDS011;653;51.480;11.992;2023-08-08T01:39:46;3.00;;;2.10;;
1320;SDS011;653;51.480;11.992;2023-08-08T01:42:14;3.50;;;2.90;;
1320;SDS011;653;51.480;11.992;2023-08-08T01:44:41;3.40;;;3.10;;
1320;SDS011;653;51.480;11.992;2023-08-08T01:47:08;4.83;;;2.90;;
1320;SDS011;653;51.480;11.992;2023-08-08T01:49:35;7.33;;;2.90;;
1320;SDS011;653;51.480;11.992;2023-08-08T01:52:02;6.13;;;2.50;;
1320;SDS011;653;51.480;11.992;2023-08-08T01:54:28;4.10;;;2.67;;
1320;SDS011;653;51.480;11.992;2023-08-08T01:56:55;4.77;;;2.77;;
1320;SDS011;653;51.480;11.992;2023-08-08T01:59:22;5.67;;;2.87;;
1320;SDS011;653;51.480;11.992;2023-08-08T02:01:49;7.30;;;3.00;;
1320;SDS011;653;51.480;11.992;2023-08-08T02:04:15;3.33;;;2.30;;
1320;SDS011;653;51.480;11.992;2023-08-08T02:06:42;4.43;;;2.20;;
1320;SDS011;653;51.480;11.992;2023-08-08T02:09:08;5.17;;;3.90;;
1320;SDS011;653;51.480;11.992;2023-08-08T02:11:34;2.73;;;2.27;;
1320;SDS011;653;51.480;11.992;2023-08-08T02:13:59;4.70;;;3.30;;
1320;SDS011;653;51.480;11.992;2023-08-08T02:16:24;4.17;;;3.00;;
1320;SDS011;653;51.480;11.992;2023-08-08T02:18:50;4.03;;;2.77;;
1320;SDS011;653;51.480;11.992;2023-08-08T02:21:16;6.30;;;2.30;;
1320;SDS011;653;51.480;11.992;2023-08-08T02:23:46;4.77;;;2.13;;
1320;SDS011;653;51.480;11.992;2023-08-08T02:26:11;3.80;;;2.43;;
1320;SDS011;653;51.480;11.992;2023-08-08T02:28:38;3.43;;;2.33;;
1320;SDS011;653;51.480;11.992;2023-08-08T02:31:04;3.47;;;2.40;;
1320;SDS011;653;51.480;11.992;2023-08-08T02:33:30;5.00;;;2.77;;
1320;SDS011;653;51.480;11.992;2023-08-08T02:35:56;4.30;;;2.10;;
1320;SDS011;653;51.480;11.992;2023-08-08T02:38:23;4.80;;;2.57;;
1320;SDS011;653;51.480;11.992;2023-08-08T02:40:53;5.63;;;2.83;;
1320;SDS011;653;51.480;11.992;2023-08-08T02:43:20;4.87;;;3.17;;
1320;SDS011;653;51.480;11.992;2023-08-08T02:45:46;3.90;;;2.17;;
1320;SDS011;653;51.480;11.992;2023-08-08T02:48:12;7.37;;;3.03;;
1320;SDS011;653;51.480;11.992;2023-08-08T02:50:38;4.13;;;2.90;;
1320;SDS011;653;51.480;11.992;2023-08-08T02:53:05;3.20;;;2.30;;
1320;SDS011;653;51.480;11.992;2023-08-08T02:55:30;4.30;;;2.83;;
1320;SDS011;653;51.480;11.992;2023-08-08T02:57:57;5.10;;;2.40;;
1320;SDS011;653;51.480;11.992;2023-08-08T03:00:23;2.97;;;2.30;;
1320;SDS011;653;51.480;11.992;2023-08-08T03:02:49;3.40;;;3.00;;
1320;SDS011;653;51.480;11.992;2023-08-08T03:05:14;4.30;;;2.77;;
1320;SDS011;653;51.480;11.992;2023-08-08T03:07:41;3.90;;;2.53;;
1320;SDS011;653;51.480;11.992;2023-08-08T03:10:09;4.80;;;2.50;;
1320;SDS011;653;51.480;11.992;2023-08-08T03:12:36;3.70;;;2.93;;
1320;SDS011;653;51.480;11.992;2023-08-08T03:15:03;5.47;;;3.23;;
1320;SDS011;653;51.480;11.992;2023-08-08T03:17:31;4.90;;;3.27;;
1320;SDS011;653;51.480;11.992;2023-08-08T03:19:56;6.83;;;3.00;;
1320;SDS011;653;51.480;11.992;2023-08-08T03:22:22;6.20;;;2.80;;
1320;SDS011;653;51.480;11.992;2023-08-08T03:24:49;7.47;;;2.97;;
1320;SDS011;653;51.480;11.992;2023-08-08T03:27:15;4.93;;;2.80;;
1320;SDS011;653;51.480;11.992;2023-08-08T03:29:43;6.07;;;3.60;;
1320;SDS011;653;51.480;11.992;2023-08-08T03:32:10;3.87;;;3.23;;
1320;SDS011;653;51.480;11.992;2023-08-08T03:34:37;3.50;;;2.70;;
1320;SDS011;653;51.480;11.992;2023-08-08T03:37:03;4.30;;;2.83;;
1320;SDS011;653;51.480;11.992;2023-08-08T03:39:30;5.00;;;3.20;;
1320;SDS011;653;51.480;11.992;2023-08-08T03:41:55;3.07;;;2.77;;
1320;SDS011;653;51.480;11.992;2023-08-08T03:44:23;4.40;;;2.73;;
1320;SDS011;653;51.480;11.992;2023-08-08T03:46:49;4.80;;;4.10;;
1320;SDS011;653;51.480;11.992;2023-08-08T03:49:16;8.13;;;3.60;;
1320;SDS011;653;51.480;11.992;2023-08-08T03:51:42;5.60;;;3.30;;
1320;SDS011;653;51.480;11.992;2023-08-08T03:54:08;5.00;;;3.23;;
1320;SDS011;653;51.480;11.992;2023-08-08T03:56:34;5.60;;;3.70;;
1320;SDS011;653;51.480;11.992;2023-08-08T03:59:00;5.00;;;3.60;;
1320;SDS011;653;51.480;11.992;2023-08-08T04:01:25;5.43;;;3.50;;
1320;SDS011;653;51.480;11.992;2023-08-08T04:03:51;4.47;;;2.27;;
1320;SDS011;653;51.480;11.992;2023-08-08T04:06:18;3.80;;;2.77;;
1320;SDS011;653;51.480;11.992;2023-08-08T04:08:46;4.03;;;3.37;;
1320;SDS011;653;51.480;11.992;2023-08-08T04:11:13;4.17;;;2.50;;
1320;SDS011;653;51.480;11.992;2023-08-08T04:13:40;3.60;;;2.43;;
1320;SDS011;653;51.480;11.992;2023-08-08T04:16:06;3.73;;;2.97;;
1320;SDS011;653;51.480;11.992;2023-08-08T04:18:35;3.40;;;2.33;;
1320;SDS011;653;51.480;11.992;2023-08-08T04:21:01;4.47;;;3.20;;
1320;SDS011;653;51.480;11.992;2023-08-08T04:23:28;3.80;;;3.27;;
1320;SDS011;653;51.480;11.992;2023-08-08T04:25:53;6.30;;;3.33;;
1320;SDS011;653;51.480;11.992;2023-08-08T04:28:19;7.73;;;3.60;;
1320;SDS011;653;51.480;11.992;2023-08-08T04:30:46;4.63;;;2.63;;
1320;SDS011;653;51.480;11.992;2023-08-08T04:33:12;6.07;;;3.40;;
1320;SDS011;653;51.480;11.992;2023-08-08T04:35:39;3.80;;;2.30;;
1320;SDS011;653;51.480;11.992;2023-08-08T04:38:06;4.03;;;2.47;;
1320;SDS011;653;51.480;11.992;2023-08-08T04:40:33;4.50;;;3.60;;
1320;SDS011;653;51.480;11.992;2023-08-08T04:42:59;3.77;;;2.87;;
1320;SDS011;653;51.480;11.992;2023-08-08T04:45:26;5.30;;;3.20;;
1320;SDS011;653;51.480;11.992;2023-08-08T04:47:52;5.37;;;3.20;;
1320;SDS011;653;51.480;11.992;2023-08-08T04:50:18;3.27;;;2.70;;
1320;SDS011;653;51.480;11.992;2023-08-08T04:52:47;3.93;;;3.00;;
1320;SDS011;653;51.480;11.992;2023-08-08T04:55:13;7.13;;;2.97;;
1320;SDS011;653;51.480;11.992;2023-08-08T04:57:40;5.47;;;2.70;;
1320;SDS011;653;51.480;11.992;2023-08-08T05:00:09;4.60;;;3.07;;
1320;SDS011;653;51.480;11.992;2023-08-08T05:02:35;4.57;;;3.00;;
1320;SDS011;653;51.480;11.992;2023-08-08T05:05:03;4.73;;;2.83;;
1320;SDS011;653;51.480;11.992;2023-08-08T05:07:30;5.90;;;2.97;;
1320;SDS011;653;51.480;11.992;2023-08-08T05:09:58;4.10;;;3.10;;
1320;SDS011;653;51.480;11.992;2023-08-08T05:12:25;3.77;;;2.03;;
1320;SDS011;653;51.480;11.992;2023-08-08T05:14:50;3.70;;;2.30;;
1320;SDS011;653;51.480;11.992;2023-08-08T05:17:15;4.80;;;2.43;;
1320;SDS011;653;51.480;11.992;2023-08-08T05:19:41;4.50;;;3.37;;
1320;SDS011;653;51.480;11.992;2023-08-08T05:22:07;5.63;;;2.87;;
1320;SDS011;653;51.480;11.992;2023-08-08T05:24:34;6.03;;;4.10;;
1320;SDS011;653;51.480;11.992;2023-08-08T05:27:02;3.27;;;2.37;;
1320;SDS011;653;51.480;11.992;2023-08-08T05:29:29;4.10;;;2.63;;
1320;SDS011;653;51.480;11.992;2023-08-08T05:31:56;7.23;;;2.97;;
1320;SDS011;653;51.480;11.992;2023-08-08T05:34:23;4.13;;;2.40;;
1320;SDS011;653;51.480;11.992;2023-08-08T05:36:51;2.70;;;2.50;;
1320;SDS011;653;51.480;11.992;2023-08-08T05:39:18;3.53;;;2.83;;
1320;SDS011;653;51.480;11.992;2023-08-08T05:41:46;3.70;;;2.40;;
1320;SDS011;653;51.480;11.992;2023-08-08T05:44:13;4.10;;;2.63;;
1320;SDS011;653;51.480;11.992;2023-08-08T05:46:39;3.50;;;2.60;;
1320;SDS011;653;51.480;11.992;2023-08-08T05:49:06;3.83;;;2.40;;
1320;SDS011;653;51.480;11.992;2023-08-08T05:51:32;2.70;;;2.30;;
1320;SDS011;653;51.480;11.992;2023-08-08T05:53:59;4.40;;;2.73;;
1320;SDS011;653;51.480;11.992;2023-08-08T05:56:27;3.70;;;2.50;;
1320;SDS011;653;51.480;11.992;2023-08-08T05:59:01;5.03;;;2.37;;
1320;SDS011;653;51.480;11.992;2023-08-08T06:01:27;2.37;;;2.00;;
1320;SDS011;653;51.480;11.992;2023-08-08T06:03:53;4.03;;;2.10;;
1320;SDS011;653;51.480;11.992;2023-08-08T06:06:20;3.17;;;2.13;;
1320;SDS011;653;51.480;11.992;2023-08-08T06:08:45;2.60;;;2.10;;
1320;SDS011;653;51.480;11.992;2023-08-08T06:11:13;5.00;;;2.13;;
1320;SDS011;653;51.480;11.992;2023-08-08T06:13:40;3.73;;;2.53;;
1320;SDS011;653;51.480;11.992;2023-08-08T06:16:06;3.17;;;1.90;;
1320;SDS011;653;51.480;11.992;2023-08-08T06:18:36;4.60;;;2.53;;
1320;SDS011;653;51.480;11.992;2023-08-08T06:21:03;2.57;;;1.70;;
1320;SDS011;653;51.480;11.992;2023-08-08T06:23:28;3.83;;;2.50;;
1320;SDS011;653;51.480;11.992;2023-08-08T06:25:55;3.33;;;1.90;;
1320;SDS011;653;51.480;11.992;2023-08-08T06:28:21;3.13;;;1.50;;
1320;SDS011;653;51.480;11.992;2023-08-08T06:30:48;4.37;;;2.07;;
1320;SDS011;653;51.480;11.992;2023-08-08T06:33:15;3.30;;;1.97;;
1320;SDS011;653;51.480;11.992;2023-08-08T06:35:42;3.20;;;2.47;;
1320;SDS011;653;51.480;11.992;2023-08-08T06:38:07;2.63;;;1.77;;
1320;SDS011;653;51.480;11.992;2023-08-08T06:40:34;4.40;;;2.30;;
1320;SDS011;653;51.480;11.992;2023-08-08T06:42:59;3.57;;;2.30;;
1320;SDS011;653;51.480;11.992;2023-08-08T06:45:26;4.03;;;1.97;;
1320;SDS011;653;51.480;11.992;2023-08-08T06:47:51;3.20;;;1.53;;
1320;SDS011;653;51.480;11.992;2023-08-08T06:50:18;2.43;;;1.73;;
1320;SDS011;653;51.480;11.992;2023-08-08T06:52:47;5.30;;;2.20;;
1320;SDS011;653;51.480;11.992;2023-08-08T06:55:13;6.33;;;2.37;;
1320;SDS011;653;51.480;11.992;2023-08-08T06:57:40;4.40;;;1.83;;
1320;SDS011;653;51.480;11.992;2023-08-08T07:00:06;2.80;;;1.73;;
1320;SDS011;653;51.480;11.992;2023-08-08T07:02:34;3.40;;;1.90;;
1320;SDS011;653;51.480;11.992;2023-08-08T07:05:02;3.00;;;2.00;;
1320;SDS011;653;51.480;11.992;2023-08-08T07:07:30;4.73;;;1.40;;
1320;SDS011;653;51.480;11.992;2023-08-08T07:09:59;2.63;;;1.77;;
1320;SDS011;653;51.480;11.992;2023-08-08T07:12:24;2.20;;;1.80;;
1320;SDS011;653;51.480;11.992;2023-08-08T07:14:51;2.77;;;1.70;;
1320;SDS011;653;51.480;11.992;2023-08-08T07:17:18;2.30;;;1.93;;
1320;SDS011;653;51.480;11.992;2023-08-08T07:19:46;3.37;;;2.43;;
1320;SDS011;653;51.480;11.992;2023-08-08T07:22:13;3.90;;;2.50;;
1320;SDS011;653;51.480;11.992;2023-08-08T07:24:39;2.83;;;2.20;;
1320;SDS011;653;51.480;11.992;2023-08-08T07:27:06;3.70;;;2.80;;
1320;SDS011;653;51.480;11.992;2023-08-08T07:29:33;3.80;;;2.70;;
1320;SDS011;653;51.480;11.992;2023-08-08T07:31:59;3.67;;;2.27;;
1320;SDS011;653;51.480;11.992;2023-08-08T07:34:29;3.40;;;2.60;;
1320;SDS011;653;51.480;11.992;2023-08-08T07:36:56;2.30;;;2.00;;
1320;SDS011;653;51.480;11.992;2023-08-08T07:39:22;4.93;;;2.63;;
1320;SDS011;653;51.480;11.992;2023-08-08T07:41:48;4.80;;;2.30;;
1320;SDS011;653;51.480;11.992;2023-08-08T07:44:15;1.70;;;1.37;;
1320;SDS011;653;51.480;11.992;2023-08-08T07:46:41;3.70;;;2.30;;
1320;SDS011;653;51.480;11.992;2023-08-08T07:49:08;2.30;;;1.80;;
1320;SDS011;653;51.480;11.992;2023-08-08T07:51:35;3.50;;;2.00;;
1320;SDS011;653;51.480;11.992;2023-08-08T07:54:01;2.20;;;1.90;;
1320;SDS011;653;51.480;11.992;2023-08-08T07:56:27;4.90;;;2.60;;
1320;SDS011;653;51.480;11.992;2023-08-08T07:58:53;5.37;;;2.40;;
1320;SDS011;653;51.480;11.992;2023-08-08T08:01:20;4.60;;;2.03;;
1320;SDS011;653;51.480;11.992;2023-08-08T08:03:45;3.37;;;2.00;;
1320;SDS011;653;51.480;11.992;2023-08-08T08:06:13;2.47;;;1.80;;
1320;SDS011;653;51.480;11.992;2023-08-08T08:08:42;3.57;;;2.33;;
1320;SDS011;653;51.480;11.992;2023-08-08T08:11:08;3.60;;;2.33;;
1320;SDS011;653;51.480;11.992;2023-08-08T08:13:35;3.90;;;2.13;;
1320;SDS011;653;51.480;11.992;2023-08-08T08:16:02;3.67;;;3.00;;
1320;SDS011;653;51.480;11.992;2023-08-08T08:18:31;4.50;;;2.80;;
1320;SDS011;653;51.480;11.992;2023-08-08T08:20:59;5.47;;;2.10;;
1320;SDS011;653;51.480;11.992;2023-08-08T08:23:25;3.33;;;2.07;;
1320;SDS011;653;51.480;11.992;2023-08-08T08:25:50;4.37;;;2.77;;
1320;SDS011;653;51.480;11.992;2023-08-08T08:28:17;4.90;;;2.30;;
1320;SDS011;653;51.480;11.992;2023-08-08T08:30:46;3.17;;;2.00;;
1320;SDS011;653;51.480;11.992;2023-08-08T08:33:12;3.60;;;2.13;;
1320;SDS011;653;51.480;11.992;2023-08-08T08:35:37;4.20;;;2.13;;
1320;SDS011;653;51.480;11.992;2023-08-08T08:38:04;3.03;;;2.27;;
1320;SDS011;653;51.480;11.992;2023-08-08T08:40:33;5.30;;;2.50;;
1320;SDS011;653;51.480;11.992;2023-08-08T08:43:01;2.37;;;2.07;;
1320;SDS011;653;51.480;11.992;2023-08-08T08:45:29;3.87;;;2.50;;
1320;SDS011;653;51.480;11.992;2023-08-08T08:47:56;5.53;;;2.13;;
1320;SDS011;653;51.480;11.992;2023-08-08T08:50:26;2.50;;;1.50;;
1320;SDS011;653;51.480;11.992;2023-08-08T08:52:54;3.20;;;2.23;;
1320;SDS011;653;51.480;11.992;2023-08-08T08:55:23;2.53;;;1.90;;
1320;SDS011;653;51.480;11.992;2023-08-08T08:57:51;4.17;;;2.20;;
1320;SDS011;653;51.480;11.992;2023-08-08T09:00:19;3.67;;;2.40;;
1320;SDS011;653;51.480;11.992;2023-08-08T09:02:46;3.00;;;2.63;;
1320;SDS011;653;51.480;11.992;2023-08-08T09:05:12;4.00;;;2.10;;
1320;SDS011;653;51.480;11.992;2023-08-08T09:07:39;4.47;;;2.47;;
1320;SDS011;653;51.480;11.992;2023-08-08T09:10:06;3.93;;;2.10;;
1320;SDS011;653;51.480;11.992;2023-08-08T09:12:33;2.83;;;2.47;;
1320;SDS011;653;51.480;11.992;2023-08-08T09:15:01;4.27;;;3.07;;
1320;SDS011;653;51.480;11.992;2023-08-08T09:17:32;3.60;;;2.60;;
1320;SDS011;653;51.480;11.992;2023-08-08T09:19:59;5.60;;;2.60;;
1320;SDS011;653;51.480;11.992;2023-08-08T09:22:26;3.40;;;2.33;;
1320;SDS011;653;51.480;11.992;2023-08-08T09:24:55;2.63;;;2.33;;
1320;SDS011;653;51.480;11.992;2023-08-08T09:27:22;3.90;;;2.17;;
1320;SDS011;653;51.480;11.992;2023-08-08T09:29:49;4.47;;;2.80;;
1320;SDS011;653;51.480;11.992;2023-08-08T09:32:15;3.30;;;2.43;;
1320;SDS011;653;51.480;11.992;2023-08-08T09:34:46;3.33;;;2.37;;
1320;SDS011;653;51.480;11.992;2023-08-08T09:37:13;5.87;;;2.93;;
1320;SDS011;653;51.480;11.992;2023-08-08T09:39:39;2.80;;;2.10;;
1320;SDS011;653;51.480;11.992;2023-08-08T09:42:07;2.87;;;1.97;;
1320;SDS011;653;51.480;11.992;2023-08-08T09:44:33;4.83;;;2.57;;
1320;SDS011;653;51.480;11.992;2023-08-08T09:47:02;2.50;;;1.77;;
1320;SDS011;653;51.480;11.992;2023-08-08T09:49:29;2.60;;;2.33;;
1320;SDS011;653;51.480;11.992;2023-08-08T09:51:58;4.17;;;2.23;;
1320;SDS011;653;51.480;11.992;2023-08-08T09:54:25;3.27;;;2.47;;
1320;SDS011;653;51.480;11.992;2023-08-08T09:56:52;2.50;;;2.30;;
1320;SDS011;653;51.480;11.992;2023-08-08T09:59:19;3.73;;;3.00;;
1320;SDS011;653;51.480;11.992;2023-08-08T10:01:46;3.53;;;2.60;;
1320;SDS011;653;51.480;11.992;2023-08-08T10:04:14;4.07;;;2.30;;
1320;SDS011;653;51.480;11.992;2023-08-08T10:06:41;3.37;;;2.80;;
1320;SDS011;653;51.480;11.992;2023-08-08T10:09:08;2.87;;;2.03;;
1320;SDS011;653;51.480;11.992;2023-08-08T10:11:33;4.10;;;3.13;;
1320;SDS011;653;51.480;11.992;2023-08-08T10:14:01;2.60;;;2.40;;
1320;SDS011;653;51.480;11.992;2023-08-08T10:16:31;3.80;;;2.80;;
1320;SDS011;653;51.480;11.992;2023-08-08T10:19:01;3.20;;;2.70;;
1320;SDS011;653;51.480;11.992;2023-08-08T10:21:41;3.40;;;2.77;;
1320;SDS011;653;51.480;11.992;2023-08-08T10:24:10;3.47;;;3.17;;
1320;SDS011;653;51.480;11.992;2023-08-08T10:26:52;3.37;;;3.07;;
1320;SDS011;653;51.480;11.992;2023-08-08T10:29:29;2.23;;;2.03;;
1320;SDS011;653;51.480;11.992;2023-08-08T10:32:03;4.47;;;2.60;;
1320;SDS011;653;51.480;11.992;2023-08-08T10:34:39;3.10;;;2.80;;
1320;SDS011;653;51.480;11.992;2023-08-08T10:37:15;4.77;;;2.77;;
1320;SDS011;653;51.480;11.992;2023-08-08T10:39:59;3.77;;;3.37;;
1320;SDS011;653;51.480;11.992;2023-08-08T10:42:31;4.73;;;2.60;;
1320;SDS011;653;51.480;11.992;2023-08-08T10:44:59;4.47;;;2.80;;
1320;SDS011;653;51.480;11.992;2023-08-08T10:47:30;3.50;;;2.37;;
1320;SDS011;653;51.480;11.992;2023-08-08T10:50:05;3.03;;;2.37;;
1320;SDS011;653;51.480;11.992;2023-08-08T11:00:38;3.20;;;2.90;;
1320;SDS011;653;51.480;11.992;2023-08-08T11:03:05;4.60;;;3.07;;
1320;SDS011;653;51.480;11.992;2023-08-08T11:05:31;4.80;;;2.93;;
1320;SDS011;653;51.480;11.992;2023-08-08T11:08:00;6.40;;;3.70;;
1320;SDS011;653;51.480;11.992;2023-08-08T11:10:27;3.70;;;3.13;;
1320;SDS011;653;51.480;11.992;2023-08-08T11:13:03;3.47;;;3.17;;
1320;SDS011;653;51.480;11.992;2023-08-08T11:15:33;3.37;;;3.07;;
1320;SDS011;653;51.480;11.992;2023-08-08T11:18:01;4.23;;;3.33;;
1320;SDS011;653;51.480;11.992;2023-08-08T11:20:31;3.30;;;3.00;;
1320;SDS011;653;51.480;11.992;2023-08-08T11:22:59;3.27;;;2.97;;
1320;SDS011;653;51.480;11.992;2023-08-08T11:25:26;9.40;;;3.93;;
1320;SDS011;653;51.480;11.992;2023-08-08T11:27:59;3.20;;;2.90;;
1320;SDS011;653;51.480;11.992;2023-08-08T11:30:30;3.50;;;3.10;;
1320;SDS011;653;51.480;11.992;2023-08-08T11:33:00;3.60;;;3.30;;
1320;SDS011;653;51.480;11.992;2023-08-08T11:35:27;3.50;;;3.20;;
1320;SDS011;653;51.480;11.992;2023-08-08T11:37:55;4.03;;;3.63;;
1320;SDS011;653;51.480;11.992;2023-08-08T11:40:24;4.13;;;3.50;;
1320;SDS011;653;51.480;11.992;2023-08-08T11:42:51;4.50;;;4.10;;
1320;SDS011;653;51.480;11.992;2023-08-08T11:45:22;8.30;;;4.30;;
1320;SDS011;653;51.480;11.992;2023-08-08T11:47:52;5.60;;;3.97;;
1320;SDS011;653;51.480;11.992;2023-08-08T11:50:20;4.93;;;4.10;;
1320;SDS011;653;51.480;11.992;2023-08-08T11:53:02;4.20;;;3.80;;
1320;SDS011;653;51.480;11.992;2023-08-08T11:55:29;4.10;;;3.67;;
1320;SDS011;653;51.480;11.992;2023-08-08T11:57:59;6.20;;;4.03;;
1320;SDS011;653;51.480;11.992;2023-08-08T12:00:29;4.03;;;3.60;;
1320;SDS011;653;51.480;11.992;2023-08-08T12:03:01;4.67;;;4.17;;
1320;SDS011;653;51.480;11.992;2023-08-08T12:05:30;4.07;;;3.77;;
1320;SDS011;653;51.480;11.992;2023-08-08T12:08:04;5.93;;;3.97;;
1320;SDS011;653;51.480;11.992;2023-08-08T12:10:32;4.40;;;4.00;;
1320;SDS011;653;51.480;11.992;2023-08-08T12:12:59;5.10;;;3.40;;
1320;SDS011;653;51.480;11.992;2023-08-08T12:15:32;4.83;;;3.53;;
1320;SDS011;653;51.480;11.992;2023-08-08T12:18:03;5.90;;;3.47;;
1320;SDS011;653;51.480;11.992;2023-08-08T12:20:30;5.00;;;3.80;;
1320;SDS011;653;51.480;11.992;2023-08-08T12:22:57;3.50;;;3.20;;
1320;SDS011;653;51.480;11.992;2023-08-08T12:25:25;3.70;;;3.40;;
1320;SDS011;653;51.480;11.992;2023-08-08T12:27:52;5.73;;;3.70;;
1320;SDS011;653;51.480;11.992;2023-08-08T12:30:18;5.00;;;3.60;;
1320;SDS011;653;51.480;11.992;2023-08-08T12:32:44;3.77;;;3.33;;
1320;SDS011;653;51.480;11.992;2023-08-08T12:35:10;4.03;;;3.50;;
1320;SDS011;653;51.480;11.992;2023-08-08T12:37:36;5.53;;;3.90;;
1320;SDS011;653;51.480;11.992;2023-08-08T12:40:02;4.67;;;3.37;;
1320;SDS011;653;51.480;11.992;2023-08-08T12:42:29;4.27;;;3.70;;
1320;SDS011;653;51.480;11.992;2023-08-08T12:44:56;4.03;;;3.63;;
1320;SDS011;653;51.480;11.992;2023-08-08T12:47:22;6.87;;;4.70;;
1320;SDS011;653;51.480;11.992;2023-08-08T12:49:49;4.30;;;3.90;;
1320;SDS011;653;51.480;11.992;2023-08-08T12:52:15;4.73;;;4.33;;
1320;SDS011;653;51.480;11.992;2023-08-08T12:54:42;4.53;;;4.10;;
1320;SDS011;653;51.480;11.992;2023-08-08T12:57:10;4.57;;;3.77;;
1320;SDS011;653;51.480;11.992;2023-08-08T12:59:36;4.33;;;3.93;;
1320;SDS011;653;51.480;11.992;2023-08-08T13:02:03;3.80;;;3.50;;
1320;SDS011;653;51.480;11.992;2023-08-08T13:04:28;4.27;;;3.83;;
1320;SDS011;653;51.480;11.992;2023-08-08T13:06:55;5.87;;;4.37;;
1320;SDS011;653;51.480;11.992;2023-08-08T13:09:21;5.80;;;4.57;;
1320;SDS011;653;51.480;11.992;2023-08-08T13:11:47;4.33;;;3.70;;
1320;SDS011;653;51.480;11.992;2023-08-08T13:14:12;4.30;;;3.73;;
1320;SDS011;653;51.480;11.992;2023-08-08T13:16:39;4.63;;;4.23;;
1320;SDS011;653;51.480;11.992;2023-08-08T13:19:05;3.90;;;3.60;;
1320;SDS011;653;51.480;11.992;2023-08-08T13:21:31;4.90;;;4.47;;
1320;SDS011;653;51.480;11.992;2023-08-08T13:23:58;5.90;;;4.47;;
1320;SDS011;653;51.480;11.992;2023-08-08T13:26:24;4.80;;;4.13;;
1320;SDS011;653;51.480;11.992;2023-08-08T13:28:50;6.67;;;4.10;;
1320;SDS011;653;51.480;11.992;2023-08-08T13:31:16;4.70;;;4.30;;
1320;SDS011;653;51.480;11.992;2023-08-08T13:33:43;4.30;;;3.90;;
1320;SDS011;653;51.480;11.992;2023-08-08T13:36:10;6.57;;;4.30;;
1320;SDS011;653;51.480;11.992;2023-08-08T13:38:35;5.50;;;4.30;;
1320;SDS011;653;51.480;11.992;2023-08-08T13:41:02;4.63;;;4.13;;
1320;SDS011;653;51.480;11.992;2023-08-08T13:43:27;4.83;;;4.43;;
1320;SDS011;653;51.480;11.992;2023-08-08T13:45:55;4.40;;;4.00;;
1320;SDS011;653;51.480;11.992;2023-08-08T13:48:20;5.47;;;4.70;;
1320;SDS011;653;51.480;11.992;2023-08-08T13:50:47;4.70;;;4.30;;
1320;SDS011;653;51.480;11.992;2023-08-08T13:53:15;4.97;;;4.47;;
1320;SDS011;653;51.480;11.992;2023-08-08T13:55:42;5.27;;;4.77;;
1320;SDS011;653;51.480;11.992;2023-08-08T13:58:09;5.80;;;4.90;;
1320;SDS011;653;51.480;11.992;2023-08-08T14:00:36;5.00;;;4.60;;
1320;SDS011;653;51.480;11.992;2023-08-08T14:03:03;6.50;;;5.33;;
1320;SDS011;653;51.480;11.992;2023-08-08T14:05:29;4.70;;;4.20;;
1320;SDS011;653;51.480;11.992;2023-08-08T14:07:56;5.20;;;4.70;;
1320;SDS011;653;51.480;11.992;2023-08-08T14:10:24;4.57;;;4.17;;
1320;SDS011;653;51.480;11.992;2023-08-08T14:12:51;4.50;;;4.20;;
1320;SDS011;653;51.480;11.992;2023-08-08T14:15:21;4.47;;;4.07;;
1320;SDS011;653;51.480;11.992;2023-08-08T14:17:49;4.97;;;4.47;;
1320;SDS011;653;51.480;11.992;2023-08-08T14:20:16;4.50;;;4.10;;
1320;SDS011;653;51.480;11.992;2023-08-08T14:22:44;4.87;;;4.37;;
1320;SDS011;653;51.480;11.992;2023-08-08T14:25:13;5.57;;;4.57;;
1320;SDS011;653;51.480;11.992;2023-08-08T14:27:39;4.77;;;4.37;;
1320;SDS011;653;51.480;11.992;2023-08-08T14:30:06;4.10;;;3.80;;
1320;SDS011;653;51.480;11.992;2023-08-08T14:32:33;4.03;;;3.60;;
1320;SDS011;653;51.480;11.992;2023-08-08T14:35:02;5.33;;;4.80;;
1320;SDS011;653;51.480;11.992;2023-08-08T14:37:31;5.30;;;4.80;;
1320;SDS011;653;51.480;11.992;2023-08-08T14:39:58;5.90;;;4.27;;
1320;SDS011;653;51.480;11.992;2023-08-08T14:42:26;5.10;;;4.70;;
1320;SDS011;653;51.480;11.992;2023-08-08T14:44:52;3.90;;;3.60;;
1320;SDS011;653;51.480;11.992;2023-08-08T14:47:18;5.30;;;4.40;;
1320;SDS011;653;51.480;11.992;2023-08-08T14:49:46;4.40;;;4.00;;
1320;SDS011;653;51.480;11.992;2023-08-08T14:52:13;5.50;;;4.40;;
1320;SDS011;653;51.480;11.992;2023-08-08T14:54:40;4.23;;;3.80;;
1320;SDS011;653;51.480;11.992;2023-08-08T14:57:05;4.77;;;4.37;;
1320;SDS011;653;51.480;11.992;2023-08-08T14:59:31;3.60;;;3.30;;
1320;SDS011;653;51.480;11.992;2023-08-08T15:01:58;5.13;;;4.10;;
1320;SDS011;653;51.480;11.992;2023-08-08T15:04:24;4.83;;;3.47;;
1320;SDS011;653;51.480;11.992;2023-08-08T15:06:53;5.23;;;3.43;;
1320;SDS011;653;51.480;11.992;2023-08-08T15:09:19;3.27;;;2.97;;
1320;SDS011;653;51.480;11.992;2023-08-08T15:11:45;3.33;;;2.53;;
1320;SDS011;653;51.480;11.992;2023-08-08T15:14:12;2.97;;;2.57;;
1320;SDS011;653;51.480;11.992;2023-08-08T15:16:39;4.53;;;3.40;;
1320;SDS011;653;51.480;11.992;2023-08-08T15:19:06;3.63;;;3.33;;
1320;SDS011;653;51.480;11.992;2023-08-08T15:21:31;4.10;;;3.30;;
1320;SDS011;653;51.480;11.992;2023-08-08T15:23:57;6.67;;;3.27;;
1320;SDS011;653;51.480;11.992;2023-08-08T15:26:22;3.67;;;3.20;;